Time;durP1;ratioP1;P1;durP2;ratioP2;P2;SDS_P1;SDS_P2;PMS_P1;PMS_P2;Temp;Humidity;BMP_temperature;BMP_pressure;BME280_temperature;BME280_humidity;BME280_pressure;Samples;Min_cycle;Max_cycle;Signal;HPM_P1;HPM_P2
2022/03/20 00:00:06;;;;;;;16.02;6.70;;;5.60;99.90;;;;;;5051675;28;20387;-64
2022/03/20 00:02:33;;;;;;;12.90;6.40;;;5.60;99.90;;;;;;5052550;28;20452;-65
2022/03/20 00:05:01;;;;;;;16.63;6.30;;;5.60;99.90;;;;;;5058420;28;20451;-64
2022/03/20 00:07:26;;;;;;;13.10;6.07;;;5.50;99.90;;;;;;5035214;28;20436;-65
2022/03/20 00:09:52;;;;;;;16.02;6.93;;;5.50;99.90;;;;;;5058679;28;20053;-67
2022/03/20 00:12:18;;;;;;;16.27;6.55;;;5.50;99.90;;;;;;5048111;28;20045;-66
2022/03/20 00:14:44;;;;;;;17.25;7.40;;;5.40;99.90;;;;;;5061469;28;20041;-65
2022/03/20 00:17:10;;;;;;;17.25;6.95;;;5.40;99.90;;;;;;5033000;28;20042;-66
2022/03/20 00:19:35;;;;;;;10.57;6.45;;;5.30;99.90;;;;;;5043347;28;20048;-65
2022/03/20 00:22:01;;;;;;;12.20;6.35;;;5.30;99.90;;;;;;5062999;28;20055;-66
2022/03/20 00:24:27;;;;;;;12.18;6.50;;;5.30;99.90;;;;;;5055454;28;20381;-64
2022/03/20 00:26:56;;;;;;;17.90;7.35;;;5.20;99.90;;;;;;5050642;28;20452;-64
2022/03/20 00:29:24;;;;;;;12.07;6.60;;;5.10;99.90;;;;;;5052066;28;20068;-64
2022/03/20 00:31:49;;;;;;;16.75;6.80;;;5.00;99.90;;;;;;5048800;28;20412;-65
2022/03/20 00:34:15;;;;;;;17.08;7.25;;;4.80;99.90;;;;;;5050646;28;20041;-64
2022/03/20 00:36:40;;;;;;;14.63;6.95;;;4.80;99.90;;;;;;5052218;28;20119;-65
2022/03/20 00:39:06;;;;;;;15.32;6.75;;;4.80;99.90;;;;;;5049117;28;20041;-65
2022/03/20 00:41:31;;;;;;;13.15;7.22;;;4.80;99.90;;;;;;5062674;28;20056;-64
2022/03/20 00:43:58;;;;;;;16.42;6.95;;;4.80;99.90;;;;;;5069619;28;20415;-66
2022/03/20 00:46:24;;;;;;;14.90;6.70;;;4.70;99.90;;;;;;5051413;28;20045;-66
2022/03/20 00:48:50;;;;;;;15.57;6.18;;;4.80;99.90;;;;;;5051454;28;20036;-67
2022/03/20 00:51:16;;;;;;;14.52;7.15;;;4.80;99.90;;;;;;5055895;28;20041;-68
2022/03/20 00:53:41;;;;;;;15.32;6.50;;;4.80;99.90;;;;;;5053566;28;20128;-64
2022/03/20 00:56:07;;;;;;;16.08;6.45;;;4.80;99.90;;;;;;5062892;28;20040;-65
2022/03/20 00:58:33;;;;;;;12.65;6.32;;;4.80;99.90;;;;;;5062431;28;20029;-67
2022/03/20 01:00:59;;;;;;;15.20;7.43;;;4.70;99.90;;;;;;5061569;28;20066;-67
2022/03/20 01:03:25;;;;;;;15.18;7.10;;;4.80;99.90;;;;;;5051749;28;20036;-67
2022/03/20 01:05:51;;;;;;;16.27;7.45;;;4.80;99.90;;;;;;5068042;28;20041;-66
2022/03/20 01:08:17;;;;;;;16.85;7.55;;;4.80;99.90;;;;;;5049933;28;20051;-66
2022/03/20 01:10:43;;;;;;;16.88;7.35;;;4.80;99.90;;;;;;5059011;28;20073;-67
2022/03/20 01:13:09;;;;;;;15.45;8.20;;;4.70;99.90;;;;;;5060229;28;20519;-66
2022/03/20 01:15:34;;;;;;;16.35;7.50;;;4.60;99.90;;;;;;5038383;28;20404;-65
2022/03/20 01:18:00;;;;;;;17.77;8.05;;;4.70;99.90;;;;;;5066527;28;20041;-66
2022/03/20 01:20:26;;;;;;;20.08;7.88;;;4.60;99.90;;;;;;5051779;28;20131;-65
2022/03/20 01:22:51;;;;;;;14.18;8.00;;;4.60;99.90;;;;;;5047199;28;20394;-66
2022/03/20 01:25:18;;;;;;;19.33;9.48;;;4.60;99.90;;;;;;5049886;28;20029;-65
2022/03/20 01:27:44;;;;;;;21.45;8.77;;;4.60;99.90;;;;;;5050566;28;20132;-64
2022/03/20 01:30:10;;;;;;;16.90;8.40;;;4.60;99.90;;;;;;5040038;28;20112;-64
2022/03/20 01:32:36;;;;;;;18.38;8.90;;;4.50;99.90;;;;;;5071026;28;20519;-64
2022/03/20 01:35:02;;;;;;;17.75;9.27;;;4.50;99.90;;;;;;5063026;28;20475;-66
2022/03/20 01:37:27;;;;;;;17.75;9.27;;;4.50;99.90;;;;;;5067753;28;20041;-64
2022/03/20 01:39:54;;;;;;;20.63;9.13;;;4.40;99.90;;;;;;5065171;28;20044;-65
2022/03/20 01:42:21;;;;;;;17.00;8.90;;;4.30;99.90;;;;;;5059845;28;20101;-64
2022/03/20 01:44:47;;;;;;;20.08;9.23;;;4.30;99.90;;;;;;5049551;28;20048;-64
2022/03/20 01:47:13;;;;;;;17.83;8.95;;;4.20;99.90;;;;;;5050173;28;20033;-65
2022/03/20 01:49:39;;;;;;;20.60;9.27;;;4.10;99.90;;;;;;5033190;28;20143;-65
2022/03/20 01:52:11;;;;;;;15.98;8.73;;;4.00;99.90;;;;;;5050011;28;20045;-64
2022/03/20 01:54:38;;;;;;;18.08;9.27;;;3.90;99.90;;;;;;5054088;28;20052;-65
2022/03/20 01:57:07;;;;;;;25.33;8.90;;;3.90;99.90;;;;;;5053639;28;20048;-64
2022/03/20 01:59:33;;;;;;;19.75;8.52;;;3.80;99.90;;;;;;5039905;28;20052;-65
2022/03/20 02:02:00;;;;;;;18.80;9.80;;;3.70;99.90;;;;;;5049215;28;20032;-64
2022/03/20 02:04:26;;;;;;;18.27;9.05;;;3.60;99.90;;;;;;5048833;28;20102;-64
2022/03/20 02:06:52;;;;;;;19.70;9.57;;;3.50;99.90;;;;;;5060574;28;20453;-66
2022/03/20 02:09:17;;;;;;;18.17;9.43;;;3.50;99.90;;;;;;5070302;28;20041;-64
2022/03/20 02:11:47;;;;;;;20.73;9.90;;;3.40;99.90;;;;;;5049910;28;20039;-65
2022/03/20 02:14:13;;;;;;;17.83;9.02;;;3.40;99.90;;;;;;5048386;28;20047;-65
2022/03/20 02:16:39;;;;;;;21.33;9.68;;;3.40;99.90;;;;;;5048282;28;20040;-64
2022/03/20 02:19:08;;;;;;;24.73;9.73;;;3.40;99.90;;;;;;5066561;28;20064;-66
2022/03/20 02:21:39;;;;;;;25.00;10.15;;;3.40;99.90;;;;;;5062803;28;20049;-65
2022/03/20 02:24:25;;;;;;;21.73;9.88;;;3.40;99.90;;;;;;5049842;28;20444;-66
2022/03/20 02:26:50;;;;;;;24.65;10.23;;;3.30;99.90;;;;;;5050152;28;20039;-65
2022/03/20 02:29:16;;;;;;;20.88;9.90;;;3.30;99.90;;;;;;5049624;28;20575;-65
2022/03/20 02:31:42;;;;;;;19.48;9.43;;;3.30;99.90;;;;;;5049128;28;20440;-66
2022/03/20 02:34:09;;;;;;;19.80;10.05;;;3.30;99.90;;;;;;5050370;28;20074;-66
2022/03/20 02:36:36;;;;;;;19.65;10.52;;;3.30;99.90;;;;;;5064375;28;20051;-64
2022/03/20 02:39:03;;;;;;;22.60;10.65;;;3.30;99.90;;;;;;5049573;28;20084;-65
2022/03/20 02:41:29;;;;;;;25.60;10.75;;;3.20;99.90;;;;;;5049510;28;20045;-65
2022/03/20 02:43:55;;;;;;;24.75;11.27;;;3.20;99.90;;;;;;5049955;28;20550;-66
2022/03/20 02:46:21;;;;;;;23.98;10.68;;;3.20;99.90;;;;;;5046368;28;20041;-64
2022/03/20 02:48:47;;;;;;;20.30;10.15;;;3.20;99.90;;;;;;5047024;28;20463;-65
2022/03/20 02:51:13;;;;;;;22.10;10.85;;;3.30;99.90;;;;;;5058896;28;20411;-65
2022/03/20 02:53:38;;;;;;;21.38;10.25;;;3.20;99.90;;;;;;5061751;28;20491;-65
2022/03/20 02:56:04;;;;;;;26.13;11.00;;;3.20;99.90;;;;;;5050074;28;20098;-66
2022/03/20 02:58:30;;;;;;;20.13;9.63;;;3.20;99.90;;;;;;5031553;28;20041;-66
2022/03/20 03:00:57;;;;;;;24.23;10.52;;;3.20;99.90;;;;;;5052081;28;20047;-65
2022/03/20 03:03:22;;;;;;;21.48;10.40;;;3.20;99.90;;;;;;5046788;28;20048;-65
2022/03/20 03:05:48;;;;;;;24.50;10.90;;;3.20;99.90;;;;;;5042821;28;20033;-65
2022/03/20 03:11:00;;;;;;;22.52;10.98;;;3.20;99.90;;;;;;5049351;28;20141;-64
2022/03/20 03:13:26;;;;;;;23.65;10.57;;;3.20;99.90;;;;;;5048782;28;20400;-65
2022/03/20 03:15:53;;;;;;;27.77;11.90;;;3.10;99.90;;;;;;5049369;28;20037;-64
2022/03/20 03:18:20;;;;;;;25.63;12.15;;;3.10;99.90;;;;;;5047528;28;20480;-64
2022/03/20 03:20:47;;;;;;;27.17;11.77;;;3.10;99.90;;;;;;5049246;28;20469;-65
2022/03/20 03:23:13;;;;;;;26.50;12.02;;;3.10;99.90;;;;;;5046549;28;20043;-64
2022/03/20 03:25:40;;;;;;;22.85;11.20;;;3.10;99.90;;;;;;5049266;28;20048;-65
2022/03/20 03:28:09;;;;;;;24.17;11.38;;;3.00;99.90;;;;;;5047375;28;20128;-66
2022/03/20 03:30:46;;;;;;;30.13;12.95;;;3.00;99.90;;;;;;5045911;28;20048;-65
2022/03/20 03:33:13;;;;;;;26.08;11.65;;;3.00;99.90;;;;;;5035937;28;20040;-67
2022/03/20 03:35:42;;;;;;;28.15;12.70;;;3.00;99.90;;;;;;5047535;28;20047;-65
2022/03/20 03:38:13;;;;;;;24.42;11.82;;;3.00;99.90;;;;;;5049076;28;20049;-64
2022/03/20 03:40:40;;;;;;;24.20;12.93;;;3.00;99.90;;;;;;5048758;28;20496;-68
2022/03/20 03:43:06;;;;;;;27.67;13.15;;;3.00;99.90;;;;;;5048284;28;20037;-67
2022/03/20 03:45:32;;;;;;;23.98;10.93;;;2.90;99.90;;;;;;5046860;28;20110;-65
2022/03/20 03:47:58;;;;;;;29.23;12.90;;;3.00;99.90;;;;;;5054951;28;20044;-64
2022/03/20 03:50:24;;;;;;;26.58;12.05;;;3.00;99.90;;;;;;5049160;28;20060;-67
2022/03/20 03:52:49;;;;;;;29.10;12.88;;;2.90;99.90;;;;;;5049272;28;20119;-67
2022/03/20 03:55:16;;;;;;;28.42;13.20;;;2.90;99.90;;;;;;5048615;28;20088;-64
2022/03/20 03:57:43;;;;;;;27.98;13.80;;;2.90;99.90;;;;;;5049134;28;20037;-65
2022/03/20 04:00:09;;;;;;;27.73;14.15;;;2.90;99.90;;;;;;5048782;28;20044;-67
2022/03/20 04:02:35;;;;;;;26.33;12.65;;;2.90;99.90;;;;;;5049648;28;20052;-66
2022/03/20 04:05:00;;;;;;;34.92;13.95;;;2.90;99.90;;;;;;5048129;28;20435;-65
2022/03/20 04:07:26;;;;;;;29.73;12.27;;;2.90;99.90;;;;;;5050669;28;20102;-68
2022/03/20 04:09:51;;;;;;;33.17;14.20;;;2.90;99.90;;;;;;5048598;28;20042;-65
2022/03/20 04:12:17;;;;;;;31.33;12.85;;;2.90;99.90;;;;;;5069449;28;20048;-65
2022/03/20 04:14:43;;;;;;;28.55;12.30;;;2.90;99.90;;;;;;5068962;28;20049;-65
2022/03/20 04:17:10;;;;;;;29.63;13.73;;;2.90;99.90;;;;;;5069225;28;20041;-67
2022/03/20 04:19:35;;;;;;;27.52;13.90;;;2.90;99.90;;;;;;5068402;28;20051;-65
2022/03/20 04:22:01;;;;;;;32.42;13.63;;;2.80;99.90;;;;;;5069416;28;20367;-65
2022/03/20 04:24:28;;;;;;;29.95;13.43;;;2.80;99.90;;;;;;5060481;28;20043;-66
2022/03/20 04:26:54;;;;;;;31.60;13.73;;;2.80;99.90;;;;;;5048019;28;20052;-65
2022/03/20 04:29:22;;;;;;;38.83;15.27;;;2.80;99.90;;;;;;5048296;28;20049;-66
2022/03/20 04:31:48;;;;;;;29.30;13.32;;;2.80;99.90;;;;;;5049277;28;20069;-67
2022/03/20 04:34:14;;;;;;;34.15;14.88;;;2.80;99.90;;;;;;5048196;28;20146;-65
2022/03/20 04:36:40;;;;;;;29.58;13.55;;;2.70;99.90;;;;;;5049206;28;20072;-66
2022/03/20 04:39:05;;;;;;;35.13;13.80;;;2.70;99.90;;;;;;5048485;28;20399;-65
2022/03/20 04:41:31;;;;;;;31.40;15.85;;;2.80;99.90;;;;;;5066228;28;20041;-64
2022/03/20 04:43:57;;;;;;;28.05;12.75;;;2.80;99.90;;;;;;5036146;28;20038;-65
2022/03/20 04:46:23;;;;;;;28.98;14.05;;;2.80;99.90;;;;;;5058933;28;20043;-69
2022/03/20 04:59:47;;;;;;;31.55;15.23;;;2.70;99.90;;;;;;5052313;28;20103;-67
2022/03/20 05:02:13;;;;;;;34.05;16.42;;;2.70;99.90;;;;;;5068962;28;20056;-67
2022/03/20 05:04:38;;;;;;;33.22;17.40;;;2.70;99.90;;;;;;5052383;28;20480;-66
2022/03/20 05:07:05;;;;;;;33.58;15.63;;;2.70;99.90;;;;;;5040104;28;20049;-66
2022/03/20 05:15:04;;;;;;;38.55;16.40;;;2.60;99.90;;;;;;5052538;28;20135;-67
2022/03/20 05:17:29;;;;;;;35.40;17.85;;;2.60;99.90;;;;;;5051997;28;20139;-64
2022/03/20 05:19:55;;;;;;;36.83;16.85;;;2.60;99.90;;;;;;5051141;28;20048;-64
2022/03/20 05:22:20;;;;;;;36.60;16.50;;;2.60;99.90;;;;;;5052084;28;20114;-66
2022/03/20 05:24:46;;;;;;;40.10;18.15;;;2.60;99.90;;;;;;5051890;28;20044;-65
2022/03/20 05:27:11;;;;;;;36.47;16.23;;;2.60;99.90;;;;;;5050819;28;20041;-66
2022/03/20 05:29:38;;;;;;;36.72;17.45;;;2.60;99.90;;;;;;5051487;28;20044;-68
2022/03/20 05:32:05;;;;;;;35.17;15.60;;;2.50;99.90;;;;;;5048529;28;20041;-65
2022/03/20 05:34:32;;;;;;;39.00;18.33;;;2.50;99.90;;;;;;5048846;28;20458;-65
2022/03/20 05:36:59;;;;;;;34.92;14.80;;;2.50;99.90;;;;;;5052530;28;20044;-65
2022/03/20 05:39:25;;;;;;;34.15;16.45;;;2.50;99.90;;;;;;5051133;28;20048;-65
2022/03/20 05:41:51;;;;;;;33.30;15.57;;;2.50;99.90;;;;;;5050580;28;20041;-65
2022/03/20 05:44:25;;;;;;;32.78;16.10;;;2.50;99.90;;;;;;5051638;28;20044;-68
2022/03/20 05:46:51;;;;;;;36.22;16.55;;;2.50;99.90;;;;;;5049181;28;20043;-66
2022/03/20 05:49:19;;;;;;;36.67;16.38;;;2.50;99.90;;;;;;5051132;28;20048;-64
2022/03/20 05:51:46;;;;;;;34.67;17.75;;;2.50;99.90;;;;;;5051954;28;20041;-65
2022/03/20 05:54:12;;;;;;;39.70;19.08;;;2.60;99.90;;;;;;5049912;28;20043;-64
2022/03/20 05:59:22;;;;;;;37.67;18.92;;;2.60;99.90;;;;;;5051364;28;20099;-65
2022/03/20 06:01:51;;;;;;;32.88;16.40;;;2.60;99.90;;;;;;5051186;28;20045;-67
2022/03/20 06:04:18;;;;;;;40.00;19.08;;;2.60;99.90;;;;;;5067746;28;20044;-65
2022/03/20 06:06:44;;;;;;;40.17;19.50;;;2.60;99.90;;;;;;5068388;28;20112;-67
2022/03/20 06:09:10;;;;;;;37.85;19.10;;;2.70;99.90;;;;;;5067387;28;20076;-66
2022/03/20 06:11:35;;;;;;;41.28;17.83;;;2.70;99.90;;;;;;5066943;28;20051;-67
2022/03/20 06:14:03;;;;;;;37.67;17.23;;;2.70;99.90;;;;;;5067929;28;20404;-67
2022/03/20 06:16:28;;;;;;;38.90;18.58;;;2.80;99.90;;;;;;5051047;28;20057;-66
2022/03/20 06:18:55;;;;;;;36.70;16.63;;;2.80;99.90;;;;;;5050556;28;20076;-65
2022/03/20 06:21:20;;;;;;;40.03;17.75;;;2.80;99.90;;;;;;5050461;28;20127;-66
2022/03/20 06:23:46;;;;;;;39.00;17.38;;;2.80;99.90;;;;;;5051398;28;20506;-66
2022/03/20 06:26:11;;;;;;;35.33;16.40;;;2.70;99.90;;;;;;5051082;28;20045;-66
2022/03/20 06:28:40;;;;;;;33.63;17.35;;;2.80;99.90;;;;;;5046067;28;20099;-65
2022/03/20 06:31:10;;;;;;;30.90;15.38;;;2.80;99.90;;;;;;5067556;28;20040;-68
2022/03/20 06:33:37;;;;;;;36.15;18.65;;;2.80;99.90;;;;;;5051404;28;20070;-65
2022/03/20 06:36:03;;;;;;;41.00;18.33;;;2.80;99.90;;;;;;5050912;28;20049;-65
2022/03/20 06:38:30;;;;;;;37.33;18.52;;;2.80;99.90;;;;;;5050798;28;20045;-66
2022/03/20 06:40:56;;;;;;;35.33;15.80;;;2.80;99.90;;;;;;5048862;28;20050;-69
2022/03/20 06:43:21;;;;;;;39.53;18.52;;;2.80;99.90;;;;;;5050584;28;20404;-65
2022/03/20 06:45:47;;;;;;;35.90;16.25;;;2.80;99.90;;;;;;5051055;28;20068;-68
2022/03/20 06:48:13;;;;;;;40.47;18.73;;;2.80;99.90;;;;;;5066949;28;20041;-67
2022/03/20 06:50:38;;;;;;;38.00;16.58;;;2.90;99.90;;;;;;5049929;28;20559;-66
2022/03/20 06:53:04;;;;;;;34.97;17.08;;;2.90;99.90;;;;;;5050709;28;20123;-65
2022/03/20 06:55:33;;;;;;;41.47;19.75;;;3.00;99.90;;;;;;5042928;28;20047;-67
2022/03/20 06:57:59;;;;;;;42.03;19.10;;;3.00;99.90;;;;;;5042501;28;20508;-64
2022/03/20 07:00:31;;;;;;;36.97;18.15;;;3.10;99.90;;;;;;5047954;28;20127;-66
2022/03/20 07:02:58;;;;;;;35.80;18.77;;;3.10;99.90;;;;;;5060195;28;20079;-68
2022/03/20 07:05:24;;;;;;;38.33;17.65;;;3.10;99.90;;;;;;5047530;28;20131;-66
2022/03/20 07:07:50;;;;;;;38.00;18.45;;;3.20;99.90;;;;;;5049416;28;20064;-65
2022/03/20 07:10:20;;;;;;;37.80;19.08;;;3.20;99.90;;;;;;5048269;28;20083;-63
2022/03/20 07:12:46;;;;;;;41.05;20.13;;;3.30;99.90;;;;;;5048999;28;20055;-66
2022/03/20 07:15:11;;;;;;;39.97;18.65;;;3.40;99.90;;;;;;5049706;28;20488;-66
2022/03/20 07:17:37;;;;;;;36.58;17.83;;;3.30;99.90;;;;;;5050159;28;20099;-68
2022/03/20 07:20:09;;;;;;;42.03;18.40;;;3.40;99.90;;;;;;5046438;28;20399;-68
2022/03/20 07:22:35;;;;;;;35.97;15.57;;;3.50;99.90;;;;;;5049927;28;20106;-65
2022/03/20 07:29:29;;;;;;;40.72;19.17;;;3.50;99.90;;;;;;5055765;28;20036;-67
2022/03/20 07:30:32;;;;;;;39.58;19.45;;;3.60;99.90;;;;;;5034237;28;20092;-70
2022/03/20 07:32:57;;;;;;;40.22;20.00;;;3.60;99.90;;;;;;5051371;28;20045;-64
2022/03/20 07:35:24;;;;;;;41.05;18.55;;;3.70;99.90;;;;;;5046199;28;20095;-67
2022/03/20 07:37:50;;;;;;;39.17;16.80;;;3.70;99.90;;;;;;5048260;28;20041;-67
2022/03/20 07:40:16;;;;;;;32.58;16.63;;;3.80;99.90;;;;;;5048922;28;20029;-67
2022/03/20 07:42:42;;;;;;;36.53;19.17;;;3.80;99.90;;;;;;5049840;28;20103;-67
2022/03/20 07:45:08;;;;;;;41.63;18.85;;;3.90;99.90;;;;;;5043862;28;20519;-67
2022/03/20 07:47:33;;;;;;;39.25;19.38;;;3.90;99.90;;;;;;5049717;28;20037;-67
2022/03/20 07:49:59;;;;;;;38.72;17.63;;;4.00;99.90;;;;;;5048898;28;20056;-66
2022/03/20 07:52:25;;;;;;;42.03;19.30;;;4.00;99.90;;;;;;5032687;28;20036;-65
2022/03/20 07:54:50;;;;;;;39.10;17.60;;;4.10;99.90;;;;;;5048436;28;20044;-66
2022/03/20 07:57:16;;;;;;;39.33;18.15;;;4.20;99.90;;;;;;5049608;28;20484;-69
2022/03/20 07:59:44;;;;;;;40.28;20.45;;;4.30;99.90;;;;;;5049272;28;20496;-66
2022/03/20 08:02:10;;;;;;;41.75;19.15;;;4.30;99.90;;;;;;5046490;28;20125;-65
2022/03/20 08:04:36;;;;;;;34.03;16.23;;;4.40;99.90;;;;;;5031967;28;20040;-67
2022/03/20 08:07:02;;;;;;;43.13;20.30;;;4.50;99.90;;;;;;5033023;28;20037;-64
2022/03/20 08:09:28;;;;;;;40.60;20.25;;;4.50;99.90;;;;;;5047112;28;20094;-69
2022/03/20 08:11:55;;;;;;;38.53;19.48;;;4.60;99.90;;;;;;5046364;28;20140;-70
2022/03/20 08:14:20;;;;;;;39.42;18.90;;;4.60;99.90;;;;;;5060290;28;20044;-68
2022/03/20 08:16:47;;;;;;;40.33;17.75;;;4.70;99.90;;;;;;5052587;28;20033;-67
2022/03/20 08:19:16;;;;;;;41.28;18.55;;;4.70;99.90;;;;;;5049516;28;20047;-66
2022/03/20 08:21:42;;;;;;;40.78;17.45;;;4.70;99.90;;;;;;5053034;28;20521;-65
2022/03/20 08:24:08;;;;;;;39.50;19.63;;;4.80;99.90;;;;;;5051594;28;20491;-68
2022/03/20 08:26:34;;;;;;;38.75;18.60;;;4.90;99.90;;;;;;5052336;28;20024;-66
2022/03/20 08:29:01;;;;;;;38.42;18.55;;;4.90;99.90;;;;;;5052597;28;20049;-66
2022/03/20 08:31:27;;;;;;;41.78;19.55;;;5.00;99.90;;;;;;5060207;28;20036;-70
2022/03/20 08:33:57;;;;;;;43.25;20.17;;;5.10;99.90;;;;;;5068084;28;20082;-67
2022/03/20 08:36:22;;;;;;;39.17;19.95;;;5.30;99.90;;;;;;5051186;28;20111;-68
2022/03/20 08:38:48;;;;;;;40.80;20.27;;;5.30;99.90;;;;;;5052301;28;20463;-68
2022/03/20 08:41:13;;;;;;;40.45;19.55;;;5.40;99.90;;;;;;5052249;28;20450;-67
2022/03/20 08:43:39;;;;;;;41.33;22.05;;;5.50;99.90;;;;;;5050838;28;20438;-70
2022/03/20 08:46:04;;;;;;;43.65;20.67;;;5.60;99.90;;;;;;5052734;28;20100;-67
2022/03/20 08:48:30;;;;;;;42.92;22.42;;;5.70;99.90;;;;;;5051100;28;20148;-71
2022/03/20 08:50:55;;;;;;;42.65;22.83;;;5.80;99.90;;;;;;5049520;28;20509;-66
2022/03/20 08:53:22;;;;;;;41.53;22.10;;;5.90;99.90;;;;;;5062863;28;20080;-68
2022/03/20 08:55:49;;;;;;;44.38;21.73;;;5.90;99.90;;;;;;5016482;28;20037;-66
2022/03/20 08:58:15;;;;;;;47.05;22.42;;;6.00;99.90;;;;;;5031919;28;20441;-67
2022/03/20 09:00:42;;;;;;;46.80;22.88;;;6.10;99.90;;;;;;5042939;28;20084;-68
2022/03/20 09:03:10;;;;;;;47.00;22.88;;;6.20;99.90;;;;;;5052461;28;20072;-71
2022/03/20 09:05:37;;;;;;;38.95;20.13;;;6.20;99.90;;;;;;5062593;28;20037;-66
2022/03/20 09:08:04;;;;;;;44.72;21.88;;;6.30;99.90;;;;;;5031934;28;20042;-74
2022/03/20 09:10:29;;;;;;;50.35;23.42;;;6.40;99.90;;;;;;5031783;28;20041;-66
2022/03/20 09:12:57;;;;;;;51.70;24.42;;;6.50;99.90;;;;;;5032469;28;20374;-68
2022/03/20 09:15:24;;;;;;;47.03;23.23;;;6.50;99.90;;;;;;5041689;28;20051;-68
2022/03/20 09:20:36;;;;;;;46.60;21.70;;;6.70;99.90;;;;;;5046842;28;20041;-69
2022/03/20 09:23:02;;;;;;;48.03;24.23;;;6.80;99.90;;;;;;5065555;28;20463;-67
2022/03/20 09:25:28;;;;;;;43.10;22.40;;;6.90;99.90;;;;;;5051568;28;20553;-69
2022/03/20 09:27:54;;;;;;;47.30;23.52;;;6.90;99.90;;;;;;5051369;28;20033;-71
2022/03/20 09:30:21;;;;;;;46.30;23.17;;;7.00;99.90;;;;;;5045819;28;20048;-68
2022/03/20 09:32:48;;;;;;;46.83;23.90;;;7.00;99.90;;;;;;5051407;28;20462;-68
2022/03/20 09:35:14;;;;;;;42.80;23.67;;;7.10;99.90;;;;;;5051372;28;20088;-68
2022/03/20 09:37:40;;;;;;;51.10;24.98;;;7.20;99.90;;;;;;5050759;28;20044;-68
2022/03/20 09:40:06;;;;;;;44.25;22.88;;;7.20;99.90;;;;;;5050575;28;20036;-67
2022/03/20 09:42:34;;;;;;;48.58;21.92;;;7.30;99.90;;;;;;5034437;28;20029;-66
2022/03/20 09:45:00;;;;;;;45.42;21.50;;;7.30;99.50;;;;;;5040269;28;20044;-71
2022/03/20 09:47:26;;;;;;;41.60;20.10;;;7.40;99.80;;;;;;5052057;28;20063;-69
2022/03/20 09:49:53;;;;;;;44.25;22.83;;;7.40;94.00;;;;;;5050363;28;20037;-71
2022/03/20 09:52:19;;;;;;;48.40;25.20;;;7.40;97.00;;;;;;5050162;28;20137;-68
2022/03/20 09:54:45;;;;;;;46.25;22.63;;;7.40;95.90;;;;;;5050975;28;20093;-69
2022/03/20 09:57:11;;;;;;;49.22;24.05;;;7.50;98.80;;;;;;5056866;28;20036;-67
2022/03/20 09:59:39;;;;;;;49.10;25.30;;;7.60;96.20;;;;;;5062860;28;20044;-70
2022/03/20 10:02:11;;;;;;;45.55;22.80;;;7.70;95.50;;;;;;5042677;28;20041;-72
2022/03/20 10:04:53;;;;;;;49.85;24.38;;;7.80;95.40;;;;;;5050046;28;20033;-71
2022/03/20 10:07:24;;;;;;;49.13;25.52;;;7.90;92.90;;;;;;5050729;28;20037;-67
2022/03/20 10:10:08;;;;;;;46.78;23.38;;;8.00;95.50;;;;;;5054109;28;20112;-71
2022/03/20 10:12:36;;;;;;;47.78;25.42;;;8.10;93.20;;;;;;5048367;28;20044;-66
2022/03/20 10:15:02;;;;;;;50.80;24.70;;;8.20;92.40;;;;;;5058597;28;20106;-72
2022/03/20 10:17:28;;;;;;;50.63;25.17;;;8.30;93.60;;;;;;5050189;28;20090;-69
2022/03/20 10:20:11;;;;;;;48.13;23.70;;;8.30;94.80;;;;;;5049689;28;20033;-70
2022/03/20 10:22:36;;;;;;;53.50;26.70;;;8.40;92.60;;;;;;5049001;28;20041;-68
2022/03/20 10:25:02;;;;;;;49.53;26.70;;;8.50;93.90;;;;;;5050646;28;20033;-69
2022/03/20 10:27:27;;;;;;;50.30;25.73;;;8.60;93.50;;;;;;5049332;28;20124;-71
2022/03/20 10:29:55;;;;;;;54.17;24.25;;;8.60;90.50;;;;;;5034558;28;20033;-69
2022/03/20 10:32:22;;;;;;;43.22;21.13;;;8.70;81.60;;;;;;5050761;28;20041;-71
2022/03/20 10:34:56;;;;;;;50.75;26.33;;;8.70;73.90;;;;;;5050438;28;20041;-68
2022/03/20 10:37:51;;;;;;;46.70;24.98;;;8.80;87.60;;;;;;5051050;28;20041;-68
2022/03/20 10:40:28;;;;;;;50.17;24.55;;;8.80;76.70;;;;;;5050034;28;20044;-69
2022/03/20 10:43:15;;;;;;;48.95;23.70;;;8.90;82.30;;;;;;5049257;28;20484;-68
2022/03/20 10:45:54;;;;;;;57.50;28.25;;;9.00;82.00;;;;;;5050819;28;20116;-68
2022/03/20 10:48:44;;;;;;;56.08;26.73;;;9.00;76.80;;;;;;5032488;28;20514;-65
2022/03/20 10:51:09;;;;;;;57.75;28.10;;;9.10;87.50;;;;;;5061672;28;20056;-71
2022/03/20 10:53:51;;;;;;;50.67;26.98;;;9.20;79.40;;;;;;5050339;28;20436;-65
2022/03/20 10:56:16;;;;;;;52.90;25.95;;;9.40;91.00;;;;;;5048610;28;20052;-69
2022/03/20 10:58:42;;;;;;;53.25;25.60;;;9.50;90.70;;;;;;5049935;28;20428;-67
2022/03/20 11:01:08;;;;;;;51.17;27.83;;;9.60;87.00;;;;;;5050353;28;20041;-66
2022/03/20 11:03:39;;;;;;;50.25;27.13;;;9.70;89.70;;;;;;5050305;28;20119;-66
2022/03/20 11:06:09;;;;;;;56.40;29.67;;;9.80;86.90;;;;;;5049231;28;20134;-68
2022/03/20 11:08:37;;;;;;;51.63;27.58;;;9.80;77.60;;;;;;5030085;28;20041;-66
2022/03/20 11:11:03;;;;;;;50.95;26.80;;;9.90;78.00;;;;;;5032723;28;20041;-69
2022/03/20 11:13:32;;;;;;;50.97;27.42;;;9.90;81.00;;;;;;5050235;28;20091;-67
2022/03/20 11:15:59;;;;;;;52.75;25.88;;;10.00;83.30;;;;;;5045770;28;20048;-69
2022/03/20 11:18:28;;;;;;;53.15;27.40;;;9.90;77.60;;;;;;5047421;28;20051;-69
2022/03/20 11:20:56;;;;;;;59.38;29.77;;;10.00;75.50;;;;;;5047433;28;20051;-69
2022/03/20 11:23:25;;;;;;;61.58;28.05;;;10.00;75.10;;;;;;5048335;28;20078;-70
2022/03/20 11:25:52;;;;;;;54.88;28.95;;;10.00;75.60;;;;;;5065943;28;20037;-68
2022/03/20 11:28:20;;;;;;;54.38;28.25;;;10.00;71.60;;;;;;5049139;28;20045;-65
2022/03/20 11:30:47;;;;;;;54.63;26.38;;;10.10;77.00;;;;;;5066670;28;20045;-69
2022/03/20 11:33:13;;;;;;;53.60;27.85;;;10.20;73.50;;;;;;5048204;28;20033;-68
2022/03/20 11:35:39;;;;;;;55.13;28.67;;;10.20;72.80;;;;;;5049446;28;20041;-69
2022/03/20 11:38:16;;;;;;;52.80;28.35;;;10.30;73.90;;;;;;5029439;28;20481;-67
2022/03/20 11:41:14;;;;;;;54.67;28.88;;;10.40;75.20;;;;;;5029036;28;20087;-67
2022/03/20 11:44:14;;;;;;;53.95;29.05;;;10.60;68.40;;;;;;5013748;28;20124;-68
2022/03/20 11:46:43;;;;;;;58.83;29.42;;;10.70;64.60;;;;;;5044703;28;20032;-68
2022/03/20 11:49:17;;;;;;;56.13;29.60;;;10.80;69.40;;;;;;5044896;28;20132;-67
2022/03/20 11:51:52;;;;;;;56.25;28.35;;;10.80;69.00;;;;;;5049657;28;20080;-67
2022/03/20 11:54:18;;;;;;;52.45;29.52;;;10.90;68.10;;;;;;5048755;28;20041;-68
2022/03/20 11:56:43;;;;;;;52.92;28.33;;;10.90;66.70;;;;;;5048999;28;20123;-67
2022/03/20 11:59:48;;;;;;;60.85;29.73;;;11.00;65.70;;;;;;5049109;28;20562;-68
2022/03/20 12:02:15;;;;;;;52.50;28.15;;;11.00;65.50;;;;;;5049184;28;20051;-69
2022/03/20 12:04:59;;;;;;;56.53;30.08;;;11.00;64.20;;;;;;5049231;28;20044;-69
2022/03/20 12:07:55;;;;;;;56.15;30.58;;;11.00;64.10;;;;;;5049635;28;20498;-68
2022/03/20 12:10:27;;;;;;;58.25;28.05;;;11.00;65.70;;;;;;5049081;28;20044;-68
2022/03/20 12:13:12;;;;;;;55.58;29.88;;;11.10;64.30;;;;;;5046220;28;20403;-68
2022/03/20 12:15:42;;;;;;;55.47;30.35;;;11.20;62.70;;;;;;5048984;28;20048;-69
2022/03/20 12:18:10;;;;;;;57.75;30.45;;;11.20;63.80;;;;;;5048602;28;20045;-68
2022/03/20 12:20:48;;;;;;;58.92;29.80;;;11.20;63.00;;;;;;5047946;28;20051;-68
2022/03/20 12:23:35;;;;;;;60.08;30.95;;;11.20;62.10;;;;;;5048773;28;20045;-68
2022/03/20 12:26:36;;;;;;;55.83;29.73;;;11.10;63.30;;;;;;5046921;28;20065;-66
2022/03/20 12:29:32;;;;;;;56.03;29.30;;;11.10;65.70;;;;;;5047794;28;20037;-66
2022/03/20 12:32:19;;;;;;;53.05;29.55;;;11.20;65.30;;;;;;5049005;28;20131;-69
2022/03/20 12:34:56;;;;;;;59.80;29.90;;;11.20;61.10;;;;;;5047255;28;20040;-67
2022/03/20 12:37:28;;;;;;;60.60;31.02;;;11.30;65.70;;;;;;5047748;28;20049;-66
2022/03/20 12:39:55;;;;;;;55.88;30.83;;;11.40;62.00;;;;;;5046545;28;20091;-66
2022/03/20 12:42:24;;;;;;;58.95;30.08;;;11.50;61.00;;;;;;5047138;28;20045;-68
2022/03/20 12:44:52;;;;;;;58.15;31.50;;;11.50;59.80;;;;;;5046619;28;20037;-68
2022/03/20 12:47:27;;;;;;;61.83;31.48;;;11.40;62.00;;;;;;5040199;28;20408;-67
2022/03/20 12:50:15;;;;;;;56.58;31.30;;;11.30;61.10;;;;;;5057827;28;20482;-66
2022/03/20 12:52:41;;;;;;;56.75;30.73;;;11.20;61.10;;;;;;5053063;28;20051;-68
2022/03/20 12:55:09;;;;;;;55.05;30.42;;;10.90;61.10;;;;;;5045560;28;20033;-68
2022/03/20 12:57:39;;;;;;;57.88;30.25;;;10.70;62.00;;;;;;5064047;28;20128;-68
2022/03/20 13:00:07;;;;;;;61.22;31.60;;;10.60;64.00;;;;;;5030679;28;20041;-68
2022/03/20 13:02:34;;;;;;;59.38;31.45;;;10.50;66.70;;;;;;5046717;28;20072;-68
2022/03/20 13:05:08;;;;;;;57.53;31.77;;;10.50;67.80;;;;;;5047845;28;20045;-67
2022/03/20 13:07:35;;;;;;;57.95;30.95;;;10.30;63.30;;;;;;5048681;28;20396;-67
2022/03/20 13:10:01;;;;;;;55.30;30.30;;;10.30;66.40;;;;;;5050644;28;20047;-68